sensor_id;sensor_type;location;lat;lon;timestamp;P1;durP1;ratioP1;P2;durP2;ratioP2
75550;SDS011;65071;53.082;18.218;2023-07-24T00:00:29;4.10;;;3.10;;
75550;SDS011;65071;53.082;18.218;2023-07-24T00:03:16;6.40;;;3.70;;
75550;SDS011;65071;53.082;18.218;2023-07-24T00:05:42;7.30;;;3.90;;
75550;SDS011;65071;53.082;18.218;2023-07-24T00:08:09;7.50;;;4.30;;
75550;SDS011;65071;53.082;18.218;2023-07-24T00:10:35;6.30;;;3.80;;
75550;SDS011;65071;53.082;18.218;2023-07-24T00:13:02;7.50;;;4.00;;
75550;SDS011;65071;53.082;18.218;2023-07-24T00:15:29;6.50;;;3.90;;
75550;SDS011;65071;53.082;18.218;2023-07-24T00:17:55;7.00;;;3.80;;
75550;SDS011;65071;53.082;18.218;2023-07-24T00:20:22;6.40;;;4.20;;
75550;SDS011;65071;53.082;18.218;2023-07-24T00:22:50;6.00;;;3.60;;
75550;SDS011;65071;53.082;18.218;2023-07-24T00:25:17;6.90;;;3.90;;
75550;SDS011;65071;53.082;18.218;2023-07-24T00:27:43;5.10;;;3.40;;
75550;SDS011;65071;53.082;18.218;2023-07-24T00:30:12;4.20;;;3.10;;
75550;SDS011;65071;53.082;18.218;2023-07-24T00:32:39;6.10;;;3.10;;
75550;SDS011;65071;53.082;18.218;2023-07-24T00:35:05;5.50;;;3.70;;
75550;SDS011;65071;53.082;18.218;2023-07-24T00:37:32;4.20;;;3.40;;
75550;SDS011;65071;53.082;18.218;2023-07-24T00:39:59;5.30;;;3.30;;
75550;SDS011;65071;53.082;18.218;2023-07-24T00:42:26;5.70;;;3.00;;
75550;SDS011;65071;53.082;18.218;2023-07-24T00:44:52;4.60;;;2.90;;
75550;SDS011;65071;53.082;18.218;2023-07-24T00:47:18;4.80;;;3.30;;
75550;SDS011;65071;53.082;18.218;2023-07-24T00:49:46;6.10;;;3.30;;
75550;SDS011;65071;53.082;18.218;2023-07-24T00:52:13;4.90;;;3.10;;
75550;SDS011;65071;53.082;18.218;2023-07-24T00:54:41;4.50;;;2.80;;
75550;SDS011;65071;53.082;18.218;2023-07-24T00:57:09;4.90;;;3.30;;
75550;SDS011;65071;53.082;18.218;2023-07-24T00:59:36;5.30;;;3.20;;
75550;SDS011;65071;53.082;18.218;2023-07-24T01:02:03;4.70;;;3.30;;
75550;SDS011;65071;53.082;18.218;2023-07-24T01:04:29;4.90;;;3.10;;
75550;SDS011;65071;53.082;18.218;2023-07-24T01:06:57;6.40;;;3.20;;
75550;SDS011;65071;53.082;18.218;2023-07-24T01:09:24;4.90;;;3.20;;
75550;SDS011;65071;53.082;18.218;2023-07-24T01:11:59;4.50;;;3.10;;
75550;SDS011;65071;53.082;18.218;2023-07-24T01:14:40;4.40;;;2.90;;
75550;SDS011;65071;53.082;18.218;2023-07-24T01:17:14;4.00;;;2.70;;
75550;SDS011;65071;53.082;18.218;2023-07-24T01:19:49;4.80;;;2.90;;
75550;SDS011;65071;53.082;18.218;2023-07-24T01:27:53;5.70;;;3.10;;
75550;SDS011;65071;53.082;18.218;2023-07-24T01:30:19;8.90;;;3.00;;
75550;SDS011;65071;53.082;18.218;2023-07-24T01:32:47;5.20;;;3.10;;
75550;SDS011;65071;53.082;18.218;2023-07-24T01:35:16;5.30;;;3.20;;
75550;SDS011;65071;53.082;18.218;2023-07-24T01:37:43;7.20;;;3.20;;
75550;SDS011;65071;53.082;18.218;2023-07-24T01:40:12;5.50;;;3.40;;
75550;SDS011;65071;53.082;18.218;2023-07-24T01:42:39;5.00;;;3.10;;
75550;SDS011;65071;53.082;18.218;2023-07-24T01:45:07;6.60;;;2.80;;
75550;SDS011;65071;53.082;18.218;2023-07-24T01:47:34;5.20;;;3.00;;
75550;SDS011;65071;53.082;18.218;2023-07-24T01:50:01;5.90;;;3.00;;
75550;SDS011;65071;53.082;18.218;2023-07-24T01:52:27;6.70;;;3.10;;
75550;SDS011;65071;53.082;18.218;2023-07-24T01:54:54;6.10;;;3.30;;
75550;SDS011;65071;53.082;18.218;2023-07-24T01:57:20;6.20;;;3.00;;
75550;SDS011;65071;53.082;18.218;2023-07-24T01:59:47;4.50;;;3.10;;
75550;SDS011;65071;53.082;18.218;2023-07-24T02:02:15;6.50;;;3.40;;
75550;SDS011;65071;53.082;18.218;2023-07-24T02:04:41;5.50;;;3.10;;
75550;SDS011;65071;53.082;18.218;2023-07-24T02:07:08;7.00;;;3.50;;
75550;SDS011;65071;53.082;18.218;2023-07-24T02:09:34;6.00;;;2.90;;
75550;SDS011;65071;53.082;18.218;2023-07-24T02:12:01;5.00;;;2.90;;
75550;SDS011;65071;53.082;18.218;2023-07-24T02:14:28;4.20;;;2.90;;
75550;SDS011;65071;53.082;18.218;2023-07-24T02:16:55;4.70;;;3.00;;
75550;SDS011;65071;53.082;18.218;2023-07-24T02:19:21;4.60;;;2.70;;
75550;SDS011;65071;53.082;18.218;2023-07-24T02:21:48;4.00;;;2.70;;
75550;SDS011;65071;53.082;18.218;2023-07-24T02:24:14;5.50;;;3.00;;
75550;SDS011;65071;53.082;18.218;2023-07-24T02:26:41;3.70;;;2.20;;
75550;SDS011;65071;53.082;18.218;2023-07-24T02:29:07;4.40;;;2.50;;
75550;SDS011;65071;53.082;18.218;2023-07-24T02:31:34;5.00;;;2.50;;
75550;SDS011;65071;53.082;18.218;2023-07-24T02:34:00;4.30;;;2.60;;
75550;SDS011;65071;53.082;18.218;2023-07-24T02:36:27;4.40;;;3.00;;
75550;SDS011;65071;53.082;18.218;2023-07-24T02:38:53;5.20;;;2.70;;
75550;SDS011;65071;53.082;18.218;2023-07-24T02:41:20;4.70;;;2.60;;
75550;SDS011;65071;53.082;18.218;2023-07-24T02:43:46;4.80;;;2.80;;
75550;SDS011;65071;53.082;18.218;2023-07-24T02:46:13;7.60;;;2.60;;
75550;SDS011;65071;53.082;18.218;2023-07-24T02:48:39;6.00;;;2.70;;
75550;SDS011;65071;53.082;18.218;2023-07-24T02:51:06;3.90;;;2.80;;
75550;SDS011;65071;53.082;18.218;2023-07-24T02:53:32;3.50;;;2.30;;
75550;SDS011;65071;53.082;18.218;2023-07-24T02:56:00;4.80;;;2.90;;
75550;SDS011;65071;53.082;18.218;2023-07-24T02:58:28;5.20;;;3.00;;
75550;SDS011;65071;53.082;18.218;2023-07-24T03:01:02;3.80;;;2.30;;
75550;SDS011;65071;53.082;18.218;2023-07-24T03:05:56;4.30;;;2.60;;
75550;SDS011;65071;53.082;18.218;2023-07-24T03:08:23;5.60;;;2.80;;
75550;SDS011;65071;53.082;18.218;2023-07-24T03:10:49;7.60;;;2.90;;
75550;SDS011;65071;53.082;18.218;2023-07-24T03:13:16;5.60;;;2.70;;
75550;SDS011;65071;53.082;18.218;2023-07-24T03:15:42;3.80;;;2.60;;
75550;SDS011;65071;53.082;18.218;2023-07-24T03:18:09;5.50;;;2.60;;
75550;SDS011;65071;53.082;18.218;2023-07-24T03:20:35;4.20;;;2.30;;
75550;SDS011;65071;53.082;18.218;2023-07-24T03:23:02;3.90;;;2.40;;
75550;SDS011;65071;53.082;18.218;2023-07-24T03:25:28;4.60;;;2.80;;
75550;SDS011;65071;53.082;18.218;2023-07-24T03:27:55;3.60;;;2.30;;
75550;SDS011;65071;53.082;18.218;2023-07-24T03:30:21;5.40;;;2.90;;
75550;SDS011;65071;53.082;18.218;2023-07-24T03:32:48;3.20;;;2.20;;
75550;SDS011;65071;53.082;18.218;2023-07-24T03:35:14;4.60;;;2.80;;
75550;SDS011;65071;53.082;18.218;2023-07-24T03:37:41;6.00;;;2.40;;
75550;SDS011;65071;53.082;18.218;2023-07-24T03:40:07;4.00;;;2.40;;
75550;SDS011;65071;53.082;18.218;2023-07-24T03:42:34;8.30;;;2.60;;
75550;SDS011;65071;53.082;18.218;2023-07-24T03:45:01;5.70;;;2.70;;
75550;SDS011;65071;53.082;18.218;2023-07-24T03:47:27;5.20;;;2.30;;
75550;SDS011;65071;53.082;18.218;2023-07-24T03:49:54;3.20;;;2.20;;
75550;SDS011;65071;53.082;18.218;2023-07-24T03:52:21;5.40;;;2.60;;
75550;SDS011;65071;53.082;18.218;2023-07-24T03:54:47;6.00;;;2.20;;
75550;SDS011;65071;53.082;18.218;2023-07-24T03:57:14;4.80;;;2.40;;
75550;SDS011;65071;53.082;18.218;2023-07-24T03:59:40;4.90;;;2.70;;
75550;SDS011;65071;53.082;18.218;2023-07-24T04:02:07;3.70;;;2.20;;
75550;SDS011;65071;53.082;18.218;2023-07-24T04:04:33;6.00;;;2.40;;
75550;SDS011;65071;53.082;18.218;2023-07-24T04:07:00;3.70;;;2.10;;
75550;SDS011;65071;53.082;18.218;2023-07-24T04:09:27;5.20;;;2.40;;
75550;SDS011;65071;53.082;18.218;2023-07-24T04:11:53;4.50;;;2.10;;
75550;SDS011;65071;53.082;18.218;2023-07-24T04:14:20;4.60;;;2.40;;
75550;SDS011;65071;53.082;18.218;2023-07-24T04:16:46;3.70;;;2.20;;
75550;SDS011;65071;53.082;18.218;2023-07-24T04:19:13;3.00;;;1.90;;
75550;SDS011;65071;53.082;18.218;2023-07-24T04:21:39;3.00;;;2.00;;
75550;SDS011;65071;53.082;18.218;2023-07-24T04:24:06;4.30;;;2.10;;
75550;SDS011;65071;53.082;18.218;2023-07-24T04:26:32;3.50;;;1.80;;
75550;SDS011;65071;53.082;18.218;2023-07-24T04:28:59;4.00;;;2.20;;
75550;SDS011;65071;53.082;18.218;2023-07-24T04:31:25;4.10;;;1.90;;
75550;SDS011;65071;53.082;18.218;2023-07-24T04:33:52;3.50;;;2.20;;
75550;SDS011;65071;53.082;18.218;2023-07-24T04:36:18;5.50;;;2.10;;
75550;SDS011;65071;53.082;18.218;2023-07-24T04:38:45;4.00;;;2.20;;
75550;SDS011;65071;53.082;18.218;2023-07-24T04:41:13;3.60;;;2.20;;
75550;SDS011;65071;53.082;18.218;2023-07-24T04:43:40;3.40;;;1.80;;
75550;SDS011;65071;53.082;18.218;2023-07-24T04:46:06;3.50;;;1.90;;
75550;SDS011;65071;53.082;18.218;2023-07-24T04:48:33;2.30;;;1.80;;
75550;SDS011;65071;53.082;18.218;2023-07-24T04:50:59;3.00;;;1.70;;
75550;SDS011;65071;53.082;18.218;2023-07-24T04:53:26;6.80;;;1.80;;
75550;SDS011;65071;53.082;18.218;2023-07-24T04:55:52;3.10;;;1.80;;
75550;SDS011;65071;53.082;18.218;2023-07-24T04:58:18;3.30;;;2.00;;
75550;SDS011;65071;53.082;18.218;2023-07-24T05:00:45;4.00;;;2.10;;
75550;SDS011;65071;53.082;18.218;2023-07-24T05:03:11;3.50;;;2.00;;
75550;SDS011;65071;53.082;18.218;2023-07-24T05:05:38;3.30;;;2.00;;
75550;SDS011;65071;53.082;18.218;2023-07-24T05:08:05;3.90;;;2.10;;
75550;SDS011;65071;53.082;18.218;2023-07-24T05:10:35;2.80;;;1.80;;
75550;SDS011;65071;53.082;18.218;2023-07-24T05:13:02;2.30;;;1.70;;
75550;SDS011;65071;53.082;18.218;2023-07-24T05:15:28;2.90;;;1.70;;
75550;SDS011;65071;53.082;18.218;2023-07-24T05:17:55;3.20;;;1.80;;
75550;SDS011;65071;53.082;18.218;2023-07-24T05:20:22;3.30;;;1.70;;
75550;SDS011;65071;53.082;18.218;2023-07-24T05:22:48;4.30;;;1.90;;
75550;SDS011;65071;53.082;18.218;2023-07-24T05:25:15;3.10;;;1.70;;
75550;SDS011;65071;53.082;18.218;2023-07-24T05:27:41;3.00;;;1.70;;
75550;SDS011;65071;53.082;18.218;2023-07-24T05:30:08;2.40;;;1.70;;
75550;SDS011;65071;53.082;18.218;2023-07-24T05:32:35;3.00;;;1.80;;
75550;SDS011;65071;53.082;18.218;2023-07-24T05:35:01;4.30;;;2.00;;
75550;SDS011;65071;53.082;18.218;2023-07-24T05:37:28;2.80;;;1.80;;
75550;SDS011;65071;53.082;18.218;2023-07-24T05:39:54;3.60;;;2.20;;
75550;SDS011;65071;53.082;18.218;2023-07-24T05:42:21;3.30;;;1.90;;
75550;SDS011;65071;53.082;18.218;2023-07-24T05:44:47;2.70;;;1.90;;
75550;SDS011;65071;53.082;18.218;2023-07-24T05:47:14;4.10;;;1.90;;
75550;SDS011;65071;53.082;18.218;2023-07-24T05:49:40;2.30;;;1.60;;
75550;SDS011;65071;53.082;18.218;2023-07-24T05:52:07;2.80;;;1.90;;
75550;SDS011;65071;53.082;18.218;2023-07-24T05:54:33;2.90;;;2.10;;
75550;SDS011;65071;53.082;18.218;2023-07-24T05:57:00;3.60;;;2.00;;
75550;SDS011;65071;53.082;18.218;2023-07-24T05:59:26;3.10;;;1.80;;
75550;SDS011;65071;53.082;18.218;2023-07-24T06:01:53;3.00;;;2.20;;
75550;SDS011;65071;53.082;18.218;2023-07-24T06:04:19;2.90;;;2.00;;
75550;SDS011;65071;53.082;18.218;2023-07-24T06:06:46;3.00;;;1.90;;
75550;SDS011;65071;53.082;18.218;2023-07-24T06:09:12;4.20;;;2.20;;
75550;SDS011;65071;53.082;18.218;2023-07-24T06:11:39;3.40;;;2.10;;
75550;SDS011;65071;53.082;18.218;2023-07-24T06:14:05;2.80;;;1.90;;
75550;SDS011;65071;53.082;18.218;2023-07-24T06:16:32;3.00;;;2.20;;
75550;SDS011;65071;53.082;18.218;2023-07-24T06:18:58;4.60;;;2.40;;
75550;SDS011;65071;53.082;18.218;2023-07-24T06:21:25;2.90;;;2.00;;
75550;SDS011;65071;53.082;18.218;2023-07-24T06:23:51;5.60;;;2.10;;
75550;SDS011;65071;53.082;18.218;2023-07-24T06:26:18;3.70;;;2.20;;
75550;SDS011;65071;53.082;18.218;2023-07-24T06:28:44;3.50;;;2.20;;
75550;SDS011;65071;53.082;18.218;2023-07-24T06:31:11;3.50;;;2.40;;
75550;SDS011;65071;53.082;18.218;2023-07-24T06:33:37;3.40;;;2.20;;
75550;SDS011;65071;53.082;18.218;2023-07-24T06:36:08;2.90;;;1.80;;
75550;SDS011;65071;53.082;18.218;2023-07-24T06:38:36;4.20;;;2.20;;
75550;SDS011;65071;53.082;18.218;2023-07-24T06:41:02;3.50;;;2.30;;
75550;SDS011;65071;53.082;18.218;2023-07-24T06:43:29;3.10;;;2.00;;
75550;SDS011;65071;53.082;18.218;2023-07-24T06:45:55;3.70;;;2.20;;
75550;SDS011;65071;53.082;18.218;2023-07-24T06:48:22;4.10;;;2.10;;
75550;SDS011;65071;53.082;18.218;2023-07-24T06:50:48;3.70;;;2.20;;
75550;SDS011;65071;53.082;18.218;2023-07-24T06:53:15;3.10;;;2.00;;
75550;SDS011;65071;53.082;18.218;2023-07-24T06:55:41;2.50;;;1.60;;
75550;SDS011;65071;53.082;18.218;2023-07-24T06:58:08;5.50;;;2.10;;
75550;SDS011;65071;53.082;18.218;2023-07-24T07:00:35;8.20;;;2.20;;
75550;SDS011;65071;53.082;18.218;2023-07-24T07:03:01;3.30;;;2.10;;
75550;SDS011;65071;53.082;18.218;2023-07-24T07:05:28;4.80;;;2.00;;
75550;SDS011;65071;53.082;18.218;2023-07-24T07:07:55;5.30;;;1.80;;
75550;SDS011;65071;53.082;18.218;2023-07-24T07:10:21;3.20;;;1.70;;
75550;SDS011;65071;53.082;18.218;2023-07-24T07:12:48;3.90;;;1.80;;
75550;SDS011;65071;53.082;18.218;2023-07-24T07:15:14;2.60;;;1.90;;
75550;SDS011;65071;53.082;18.218;2023-07-24T07:17:41;3.10;;;1.80;;
75550;SDS011;65071;53.082;18.218;2023-07-24T07:20:08;3.00;;;2.00;;
75550;SDS011;65071;53.082;18.218;2023-07-24T07:22:34;4.30;;;2.10;;
75550;SDS011;65071;53.082;18.218;2023-07-24T07:25:01;4.80;;;2.10;;
75550;SDS011;65071;53.082;18.218;2023-07-24T07:27:27;4.20;;;2.00;;
75550;SDS011;65071;53.082;18.218;2023-07-24T07:29:54;3.00;;;2.00;;
75550;SDS011;65071;53.082;18.218;2023-07-24T07:32:21;6.00;;;2.20;;
75550;SDS011;65071;53.082;18.218;2023-07-24T07:34:47;4.60;;;2.60;;
75550;SDS011;65071;53.082;18.218;2023-07-24T07:37:14;2.70;;;1.90;;
75550;SDS011;65071;53.082;18.218;2023-07-24T07:39:40;3.50;;;2.20;;
75550;SDS011;65071;53.082;18.218;2023-07-24T07:42:07;3.30;;;2.30;;
75550;SDS011;65071;53.082;18.218;2023-07-24T07:44:33;4.00;;;2.10;;
75550;SDS011;65071;53.082;18.218;2023-07-24T07:47:00;3.50;;;2.30;;
75550;SDS011;65071;53.082;18.218;2023-07-24T07:49:26;3.30;;;2.30;;
75550;SDS011;65071;53.082;18.218;2023-07-24T07:51:53;3.40;;;2.40;;
75550;SDS011;65071;53.082;18.218;2023-07-24T07:54:19;2.80;;;2.30;;
75550;SDS011;65071;53.082;18.218;2023-07-24T07:56:46;3.20;;;2.30;;
75550;SDS011;65071;53.082;18.218;2023-07-24T07:59:12;3.10;;;2.20;;
75550;SDS011;65071;53.082;18.218;2023-07-24T08:01:39;3.20;;;2.00;;
75550;SDS011;65071;53.082;18.218;2023-07-24T08:04:05;4.50;;;1.80;;
75550;SDS011;65071;53.082;18.218;2023-07-24T08:06:32;3.10;;;1.90;;
75550;SDS011;65071;53.082;18.218;2023-07-24T08:08:58;4.30;;;2.20;;
75550;SDS011;65071;53.082;18.218;2023-07-24T08:11:25;3.50;;;1.80;;
75550;SDS011;65071;53.082;18.218;2023-07-24T08:13:51;4.30;;;2.10;;
75550;SDS011;65071;53.082;18.218;2023-07-24T08:16:18;2.50;;;1.70;;
75550;SDS011;65071;53.082;18.218;2023-07-24T08:18:46;5.50;;;2.30;;
75550;SDS011;65071;53.082;18.218;2023-07-24T08:21:14;3.80;;;2.20;;
75550;SDS011;65071;53.082;18.218;2023-07-24T08:23:41;3.50;;;2.20;;
75550;SDS011;65071;53.082;18.218;2023-07-24T08:26:08;3.50;;;2.50;;
75550;SDS011;65071;53.082;18.218;2023-07-24T08:28:34;2.60;;;1.90;;
75550;SDS011;65071;53.082;18.218;2023-07-24T08:31:01;4.20;;;2.00;;
75550;SDS011;65071;53.082;18.218;2023-07-24T08:33:28;2.30;;;1.90;;
75550;SDS011;65071;53.082;18.218;2023-07-24T08:36:02;5.50;;;2.10;;
75550;SDS011;65071;53.082;18.218;2023-07-24T08:38:30;3.00;;;2.20;;
75550;SDS011;65071;53.082;18.218;2023-07-24T08:41:04;3.10;;;2.00;;
75550;SDS011;65071;53.082;18.218;2023-07-24T08:43:33;3.10;;;2.10;;
75550;SDS011;65071;53.082;18.218;2023-07-24T08:46:00;3.40;;;2.20;;
75550;SDS011;65071;53.082;18.218;2023-07-24T08:48:36;2.80;;;1.70;;
75550;SDS011;65071;53.082;18.218;2023-07-24T08:51:04;3.10;;;2.00;;
75550;SDS011;65071;53.082;18.218;2023-07-24T08:53:35;3.90;;;2.10;;
75550;SDS011;65071;53.082;18.218;2023-07-24T08:56:03;3.40;;;2.40;;
75550;SDS011;65071;53.082;18.218;2023-07-24T08:58:30;2.60;;;1.80;;
75550;SDS011;65071;53.082;18.218;2023-07-24T09:00:57;2.50;;;1.80;;
75550;SDS011;65071;53.082;18.218;2023-07-24T09:03:25;2.90;;;2.00;;
75550;SDS011;65071;53.082;18.218;2023-07-24T09:05:52;2.50;;;1.70;;
75550;SDS011;65071;53.082;18.218;2023-07-24T09:11:03;3.60;;;1.90;;
75550;SDS011;65071;53.082;18.218;2023-07-24T09:13:31;3.30;;;2.20;;
75550;SDS011;65071;53.082;18.218;2023-07-24T09:15:58;4.80;;;2.20;;
75550;SDS011;65071;53.082;18.218;2023-07-24T09:18:37;5.50;;;2.30;;
75550;SDS011;65071;53.082;18.218;2023-07-24T09:21:09;3.80;;;2.20;;
75550;SDS011;65071;53.082;18.218;2023-07-24T09:23:36;3.20;;;2.00;;
75550;SDS011;65071;53.082;18.218;2023-07-24T09:26:05;3.20;;;2.10;;
75550;SDS011;65071;53.082;18.218;2023-07-24T09:28:33;2.70;;;1.90;;
75550;SDS011;65071;53.082;18.218;2023-07-24T09:31:01;4.40;;;1.90;;
75550;SDS011;65071;53.082;18.218;2023-07-24T09:33:35;3.40;;;2.00;;
75550;SDS011;65071;53.082;18.218;2023-07-24T09:36:03;4.10;;;1.80;;
75550;SDS011;65071;53.082;18.218;2023-07-24T09:38:31;3.10;;;1.70;;
75550;SDS011;65071;53.082;18.218;2023-07-24T09:40:57;2.30;;;1.70;;
75550;SDS011;65071;53.082;18.218;2023-07-24T09:43:24;2.90;;;1.90;;
75550;SDS011;65071;53.082;18.218;2023-07-24T09:45:53;2.60;;;1.80;;
75550;SDS011;65071;53.082;18.218;2023-07-24T09:48:21;2.60;;;1.90;;
75550;SDS011;65071;53.082;18.218;2023-07-24T09:50:53;3.80;;;1.70;;
75550;SDS011;65071;53.082;18.218;2023-07-24T09:56:09;4.10;;;1.80;;
75550;SDS011;65071;53.082;18.218;2023-07-24T09:58:37;3.60;;;1.90;;
75550;SDS011;65071;53.082;18.218;2023-07-24T10:01:05;4.40;;;1.90;;
75550;SDS011;65071;53.082;18.218;2023-07-24T10:03:38;3.70;;;1.80;;
75550;SDS011;65071;53.082;18.218;2023-07-24T10:06:08;2.40;;;1.90;;
75550;SDS011;65071;53.082;18.218;2023-07-24T10:08:38;2.00;;;1.80;;
75550;SDS011;65071;53.082;18.218;2023-07-24T10:11:05;2.80;;;2.00;;
75550;SDS011;65071;53.082;18.218;2023-07-24T10:16:03;3.70;;;2.00;;
75550;SDS011;65071;53.082;18.218;2023-07-24T10:18:33;3.00;;;1.90;;
75550;SDS011;65071;53.082;18.218;2023-07-24T10:21:05;2.10;;;1.70;;
75550;SDS011;65071;53.082;18.218;2023-07-24T10:23:33;2.50;;;1.80;;
75550;SDS011;65071;53.082;18.218;2023-07-24T10:26:02;3.10;;;2.00;;
75550;SDS011;65071;53.082;18.218;2023-07-24T10:28:31;2.10;;;1.70;;
75550;SDS011;65071;53.082;18.218;2023-07-24T10:30:59;2.30;;;2.00;;
75550;SDS011;65071;53.082;18.218;2023-07-24T10:33:31;2.90;;;1.90;;
75550;SDS011;65071;53.082;18.218;2023-07-24T10:38:43;2.10;;;1.60;;
75550;SDS011;65071;53.082;18.218;2023-07-24T10:41:10;3.10;;;1.60;;
75550;SDS011;65071;53.082;18.218;2023-07-24T10:43:44;3.40;;;1.90;;
75550;SDS011;65071;53.082;18.218;2023-07-24T10:46:13;2.40;;;1.70;;
75550;SDS011;65071;53.082;18.218;2023-07-24T10:48:47;2.20;;;1.80;;
75550;SDS011;65071;53.082;18.218;2023-07-24T10:51:16;3.30;;;1.80;;
75550;SDS011;65071;53.082;18.218;2023-07-24T10:53:46;2.60;;;2.00;;
75550;SDS011;65071;53.082;18.218;2023-07-24T10:56:15;3.00;;;1.90;;
75550;SDS011;65071;53.082;18.218;2023-07-24T10:58:42;3.40;;;1.60;;
75550;SDS011;65071;53.082;18.218;2023-07-24T11:01:09;2.70;;;1.60;;
75550;SDS011;65071;53.082;18.218;2023-07-24T11:03:37;2.80;;;1.90;;
75550;SDS011;65071;53.082;18.218;2023-07-24T11:09:00;2.30;;;1.80;;
75550;SDS011;65071;53.082;18.218;2023-07-24T11:11:30;3.60;;;1.70;;
75550;SDS011;65071;53.082;18.218;2023-07-24T11:13:58;1.90;;;1.60;;
75550;SDS011;65071;53.082;18.218;2023-07-24T11:16:25;3.00;;;1.80;;
75550;SDS011;65071;53.082;18.218;2023-07-24T11:18:52;2.10;;;1.80;;
75550;SDS011;65071;53.082;18.218;2023-07-24T11:21:18;3.70;;;2.00;;
75550;SDS011;65071;53.082;18.218;2023-07-24T11:23:49;3.50;;;2.10;;
75550;SDS011;65071;53.082;18.218;2023-07-24T11:26:20;2.40;;;1.90;;
75550;SDS011;65071;53.082;18.218;2023-07-24T11:28:49;3.60;;;2.20;;
75550;SDS011;65071;53.082;18.218;2023-07-24T11:31:16;2.60;;;1.80;;
75550;SDS011;65071;53.082;18.218;2023-07-24T11:33:46;3.20;;;2.20;;
75550;SDS011;65071;53.082;18.218;2023-07-24T11:36:14;2.10;;;1.90;;
75550;SDS011;65071;53.082;18.218;2023-07-24T11:38:41;2.70;;;1.90;;
75550;SDS011;65071;53.082;18.218;2023-07-24T11:41:08;2.70;;;2.00;;
75550;SDS011;65071;53.082;18.218;2023-07-24T11:43:35;3.70;;;1.90;;
75550;SDS011;65071;53.082;18.218;2023-07-24T11:46:01;3.70;;;2.00;;
75550;SDS011;65071;53.082;18.218;2023-07-24T11:48:28;3.00;;;2.00;;
75550;SDS011;65071;53.082;18.218;2023-07-24T11:50:55;3.80;;;1.60;;
75550;SDS011;65071;53.082;18.218;2023-07-24T11:53:24;2.50;;;1.80;;
75550;SDS011;65071;53.082;18.218;2023-07-24T11:55:52;2.40;;;1.80;;
75550;SDS011;65071;53.082;18.218;2023-07-24T11:58:21;3.20;;;1.80;;
75550;SDS011;65071;53.082;18.218;2023-07-24T12:00:48;2.90;;;1.70;;
75550;SDS011;65071;53.082;18.218;2023-07-24T12:03:25;3.10;;;1.80;;
75550;SDS011;65071;53.082;18.218;2023-07-24T12:05:53;2.60;;;1.60;;
75550;SDS011;65071;53.082;18.218;2023-07-24T12:08:21;3.10;;;1.80;;
75550;SDS011;65071;53.082;18.218;2023-07-24T12:10:57;2.70;;;1.80;;
75550;SDS011;65071;53.082;18.218;2023-07-24T12:13:23;2.80;;;1.60;;
75550;SDS011;65071;53.082;18.218;2023-07-24T12:15:50;2.40;;;1.60;;
75550;SDS011;65071;53.082;18.218;2023-07-24T12:18:17;2.30;;;1.20;;
75550;SDS011;65071;53.082;18.218;2023-07-24T12:20:43;3.70;;;1.70;;
75550;SDS011;65071;53.082;18.218;2023-07-24T12:23:10;4.00;;;1.50;;
75550;SDS011;65071;53.082;18.218;2023-07-24T12:25:36;2.60;;;1.60;;
75550;SDS011;65071;53.082;18.218;2023-07-24T12:28:03;2.30;;;1.40;;
75550;SDS011;65071;53.082;18.218;2023-07-24T12:30:29;2.00;;;1.40;;
75550;SDS011;65071;53.082;18.218;2023-07-24T12:32:56;1.90;;;1.30;;
75550;SDS011;65071;53.082;18.218;2023-07-24T12:35:22;2.30;;;1.60;;
75550;SDS011;65071;53.082;18.218;2023-07-24T12:37:49;2.80;;;1.60;;
75550;SDS011;65071;53.082;18.218;2023-07-24T12:40:15;2.50;;;1.60;;
75550;SDS011;65071;53.082;18.218;2023-07-24T12:42:42;2.80;;;1.50;;
75550;SDS011;65071;53.082;18.218;2023-07-24T12:45:08;1.90;;;1.60;;
75550;SDS011;65071;53.082;18.218;2023-07-24T12:47:35;2.30;;;1.40;;
75550;SDS011;65071;53.082;18.218;2023-07-24T12:50:02;2.50;;;1.40;;
75550;SDS011;65071;53.082;18.218;2023-07-24T12:52:29;1.80;;;1.40;;
75550;SDS011;65071;53.082;18.218;2023-07-24T12:54:55;2.10;;;1.60;;
75550;SDS011;65071;53.082;18.218;2023-07-24T12:57:22;2.60;;;1.80;;
75550;SDS011;65071;53.082;18.218;2023-07-24T12:59:50;2.30;;;1.70;;
75550;SDS011;65071;53.082;18.218;2023-07-24T13:02:16;2.90;;;1.60;;
75550;SDS011;65071;53.082;18.218;2023-07-24T13:04:43;2.50;;;1.60;;
75550;SDS011;65071;53.082;18.218;2023-07-24T13:07:09;2.30;;;1.80;;
75550;SDS011;65071;53.082;18.218;2023-07-24T13:09:36;2.80;;;1.50;;
75550;SDS011;65071;53.082;18.218;2023-07-24T13:12:02;1.90;;;1.50;;
75550;SDS011;65071;53.082;18.218;2023-07-24T13:14:29;2.50;;;1.90;;
75550;SDS011;65071;53.082;18.218;2023-07-24T13:16:55;2.00;;;1.60;;
75550;SDS011;65071;53.082;18.218;2023-07-24T13:19:22;2.70;;;1.70;;
75550;SDS011;65071;53.082;18.218;2023-07-24T13:21:49;2.90;;;1.60;;
75550;SDS011;65071;53.082;18.218;2023-07-24T13:24:16;2.70;;;1.60;;
75550;SDS011;65071;53.082;18.218;2023-07-24T13:26:42;3.10;;;1.70;;
75550;SDS011;65071;53.082;18.218;2023-07-24T13:29:09;4.20;;;1.80;;
75550;SDS011;65071;53.082;18.218;2023-07-24T13:31:35;2.50;;;1.60;;
75550;SDS011;65071;53.082;18.218;2023-07-24T13:34:03;2.40;;;1.70;;
75550;SDS011;65071;53.082;18.218;2023-07-24T13:36:29;1.90;;;1.60;;
75550;SDS011;65071;53.082;18.218;2023-07-24T13:38:56;5.90;;;1.60;;
75550;SDS011;65071;53.082;18.218;2023-07-24T13:41:22;1.80;;;1.60;;
75550;SDS011;65071;53.082;18.218;2023-07-24T13:43:49;3.30;;;1.80;;
75550;SDS011;65071;53.082;18.218;2023-07-24T13:46:15;3.30;;;1.60;;
75550;SDS011;65071;53.082;18.218;2023-07-24T13:48:42;2.40;;;1.80;;
75550;SDS011;65071;53.082;18.218;2023-07-24T13:51:09;2.50;;;1.60;;
75550;SDS011;65071;53.082;18.218;2023-07-24T13:53:35;3.40;;;1.80;;
75550;SDS011;65071;53.082;18.218;2023-07-24T13:56:02;4.30;;;1.90;;
75550;SDS011;65071;53.082;18.218;2023-07-24T13:58:29;2.70;;;2.10;;
75550;SDS011;65071;53.082;18.218;2023-07-24T14:00:55;2.20;;;2.00;;
75550;SDS011;65071;53.082;18.218;2023-07-24T14:03:22;2.70;;;1.60;;
75550;SDS011;65071;53.082;18.218;2023-07-24T14:05:52;3.00;;;1.80;;
75550;SDS011;65071;53.082;18.218;2023-07-24T14:08:18;2.80;;;2.10;;
75550;SDS011;65071;53.082;18.218;2023-07-24T14:10:45;2.60;;;1.90;;
75550;SDS011;65071;53.082;18.218;2023-07-24T14:13:11;3.10;;;2.00;;
75550;SDS011;65071;53.082;18.218;2023-07-24T14:15:38;2.20;;;1.80;;
75550;SDS011;65071;53.082;18.218;2023-07-24T14:18:04;2.80;;;1.80;;
75550;SDS011;65071;53.082;18.218;2023-07-24T14:20:31;3.40;;;1.80;;
75550;SDS011;65071;53.082;18.218;2023-07-24T14:22:57;3.30;;;2.00;;
75550;SDS011;65071;53.082;18.218;2023-07-24T14:25:24;3.70;;;1.90;;
75550;SDS011;65071;53.082;18.218;2023-07-24T14:27:51;5.50;;;2.60;;
75550;SDS011;65071;53.082;18.218;2023-07-24T14:30:17;3.30;;;1.90;;
75550;SDS011;65071;53.082;18.218;2023-07-24T14:32:43;2.60;;;2.10;;
75550;SDS011;65071;53.082;18.218;2023-07-24T14:35:10;2.50;;;2.10;;
75550;SDS011;65071;53.082;18.218;2023-07-24T14:37:36;3.60;;;2.60;;
75550;SDS011;65071;53.082;18.218;2023-07-24T14:40:03;2.60;;;2.40;;
75550;SDS011;65071;53.082;18.218;2023-07-24T14:42:30;3.60;;;2.80;;
75550;SDS011;65071;53.082;18.218;2023-07-24T14:44:57;3.30;;;2.80;;
75550;SDS011;65071;53.082;18.218;2023-07-24T14:47:28;4.90;;;2.70;;
75550;SDS011;65071;53.082;18.218;2023-07-24T14:49:58;4.30;;;2.70;;
75550;SDS011;65071;53.082;18.218;2023-07-24T14:52:25;3.60;;;2.70;;
75550;SDS011;65071;53.082;18.218;2023-07-24T14:54:51;4.00;;;2.80;;